Time;durP1;ratioP1;P1;durP2;ratioP2;P2;SDS_P1;SDS_P2;PMS_P1;PMS_P2;Temp;Humidity;BMP_temperature;BMP_pressure;BME280_temperature;BME280_humidity;BME280_pressure;Samples;Min_cycle;Max_cycle;Signal;HPM_P1;HPM_P2
2022/07/08 00:00:41;;;;;;;;;;;;;;;23.59;31.76;102520.69;5048195;28;20376;-79
2022/07/08 00:03:08;;;;;;;;;;;;;;;23.58;31.96;102535.56;5049154;28;20338;-79
2022/07/08 00:05:35;;;;;;;;;;;;;;;23.58;31.91;102533.69;5058886;28;20099;-79
2022/07/08 00:08:01;;;;;;;;;;;;;;;23.58;31.54;102521.72;5045077;28;19924;-79
2022/07/08 00:10:28;;;;;;;;;;;;;;;23.58;31.87;102533.69;5054182;28;19924;-79
2022/07/08 00:12:54;;;;;;;;;;;;;;;23.58;31.50;102532.78;5050313;28;19952;-79
2022/07/08 00:15:21;;;;;;;;;;;;;;;23.58;31.60;102543.88;5051459;28;19977;-79
2022/07/08 00:17:48;;;;;;;;;;;;;;;23.56;31.41;102541.25;5052017;28;20493;-79
2022/07/08 00:20:15;;;;;;;;;;;;;;;23.56;31.63;102537.59;5059282;28;19974;-79
2022/07/08 00:22:41;;;;;;;;;;;;;;;23.56;31.93;102540.38;5058680;28;20016;-79
2022/07/08 00:25:08;;;;;;;;;;;;;;;23.56;31.90;102537.59;5045505;28;19971;-79
2022/07/08 00:27:34;;;;;;;;;;;;;;;23.55;31.84;102533.13;5046013;28;19925;-79
2022/07/08 00:30:01;;;;;;;;;;;;;;;23.53;31.84;102533.25;5050955;28;19979;-79
2022/07/08 00:32:27;;;;;;;;;;;;;;;23.54;31.36;102525.81;5043364;28;20431;-79
2022/07/08 00:34:54;;;;;;;;;;;;;;;23.53;31.75;102527.72;5054061;28;20454;-79
2022/07/08 00:37:21;;;;;;;;;;;;;;;23.52;31.88;102525.94;5054095;28;19942;-79
2022/07/08 00:39:47;;;;;;;;;;;;;;;23.51;31.95;102532.50;5050328;28;19990;-79
2022/07/08 00:42:14;;;;;;;;;;;;;;;23.50;31.66;102533.53;5054195;28;19921;-80
2022/07/08 00:44:40;;;;;;;;;;;;;;;23.49;31.89;102531.78;5056580;28;19924;-79
2022/07/08 00:47:06;;;;;;;;;;;;;;;23.48;31.83;102532.75;5063640;28;20035;-79
2022/07/08 00:49:33;;;;;;;;;;;;;;;23.48;32.21;102532.75;5053864;28;20012;-79
2022/07/08 00:51:59;;;;;;;;;;;;;;;23.48;32.19;102532.75;5052636;28;20012;-79
2022/07/08 00:54:26;;;;;;;;;;;;;;;23.46;31.66;102529.28;5052572;28;19943;-79
2022/07/08 00:56:54;;;;;;;;;;;;;;;23.45;31.60;102533.94;5051151;28;19981;-79
2022/07/08 00:59:21;;;;;;;;;;;;;;;23.45;31.60;102536.72;5043524;28;19963;-79
2022/07/08 01:01:47;;;;;;;;;;;;;;;23.44;32.22;102542.41;5048620;28;19955;-79
2022/07/08 01:04:14;;;;;;;;;;;;;;;23.44;31.77;102539.63;5047326;28;19928;-79
2022/07/08 01:06:41;;;;;;;;;;;;;;;23.41;31.81;102538.03;5056145;28;19924;-79
2022/07/08 01:09:07;;;;;;;;;;;;;;;23.42;31.70;102544.44;5043148;28;20015;-78
2022/07/08 01:11:34;;;;;;;;;;;;;;;23.41;31.74;102545.47;5057463;28;19924;-79
2022/07/08 01:14:00;;;;;;;;;;;;;;;23.40;31.84;102546.47;5049132;28;19956;-79
2022/07/08 01:16:27;;;;;;;;;;;;;;;23.39;32.30;102548.38;5045982;28;19925;-79
2022/07/08 01:18:54;;;;;;;;;;;;;;;23.37;32.11;102546.78;5047646;28;19921;-79
2022/07/08 01:21:20;;;;;;;;;;;;;;;23.37;32.19;102549.56;5050402;28;19997;-79
2022/07/08 01:23:47;;;;;;;;;;;;;;;23.35;32.08;102549.69;5058224;28;20377;-79
2022/07/08 01:26:13;;;;;;;;;;;;;;;23.35;32.19;102557.13;5050660;28;20375;-79
2022/07/08 01:28:40;;;;;;;;;;;;;;;23.35;32.24;102555.25;5042924;28;19925;-79
2022/07/08 01:31:07;;;;;;;;;;;;;;;23.35;31.94;102559.91;5050893;28;20367;-79
2022/07/08 01:33:34;;;;;;;;;;;;;;;23.34;31.82;102555.38;5046832;28;19924;-79
2022/07/08 01:36:00;;;;;;;;;;;;;;;23.34;32.02;102547.06;5054520;28;20007;-79
2022/07/08 01:38:27;;;;;;;;;;;;;;;23.32;32.38;102546.31;5051997;28;19928;-79
2022/07/08 01:40:54;;;;;;;;;;;;;;;23.31;32.27;102545.44;5051001;28;20371;-79
2022/07/08 01:43:20;;;;;;;;;;;;;;;23.30;32.30;102543.72;5053947;28;20512;-79
2022/07/08 01:45:47;;;;;;;;;;;;;;;23.30;32.09;102543.72;5047414;28;19924;-79
2022/07/08 01:48:14;;;;;;;;;;;;;;;23.29;32.40;102543.84;5050967;28;20202;-79
2022/07/08 01:50:40;;;;;;;;;;;;;;;23.29;32.18;102546.63;5051626;28;19924;-78
2022/07/08 01:53:07;;;;;;;;;;;;;;;23.28;32.47;102542.09;5045968;28;19925;-79
2022/07/08 01:55:33;;;;;;;;;;;;;;;23.28;32.38;102547.66;5050807;28;20002;-79
2022/07/08 01:57:59;;;;;;;;;;;;;;;23.28;32.04;102547.66;5044426;28;20169;-79
2022/07/08 02:00:26;;;;;;;;;;;;;;;23.28;32.22;102542.09;5048959;28;20428;-79
2022/07/08 02:02:55;;;;;;;;;;;;;;;23.27;32.13;102548.66;5062763;28;19960;-79
2022/07/08 02:05:22;;;;;;;;;;;;;;;23.26;31.99;102539.47;5051945;28;20371;-79
2022/07/08 02:07:49;;;;;;;;;;;;;;;23.25;32.01;102548.81;5049970;28;20015;-79
2022/07/08 02:10:15;;;;;;;;;;;;;;;23.24;31.98;102552.59;5056768;28;19955;-79
2022/07/08 02:12:42;;;;;;;;;;;;;;;23.24;32.06;102546.16;5047904;28;19927;-79
2022/07/08 02:15:09;;;;;;;;;;;;;;;23.23;32.50;102549.97;5052129;28;19963;-79
2022/07/08 02:17:39;;;;;;;;;;;;;;;23.23;31.88;102549.97;5051289;28;19967;-79
2022/07/08 02:20:07;;;;;;;;;;;;;;;23.22;32.35;102551.00;5053824;28;19936;-79
2022/07/08 02:22:34;;;;;;;;;;;;;;;23.20;31.97;102544.72;5056780;28;19963;-79
2022/07/08 02:25:00;;;;;;;;;;;;;;;23.20;32.34;102544.72;5063394;28;20258;-79
2022/07/08 02:27:27;;;;;;;;;;;;;;;23.19;32.52;102545.72;5058413;28;19960;-79
2022/07/08 02:29:53;;;;;;;;;;;;;;;23.19;32.10;102537.41;5047564;28;19974;-79
2022/07/08 02:32:20;;;;;;;;;;;;;;;23.19;32.50;102540.19;5047827;28;19974;-79
2022/07/08 02:34:46;;;;;;;;;;;;;;;23.18;32.08;102542.09;5048490;28;20441;-79
2022/07/08 02:37:16;;;;;;;;;;;;;;;23.17;32.07;102539.44;5058169;28;19974;-79
2022/07/08 02:39:42;;;;;;;;;;;;;;;23.15;32.28;102543.25;5055513;28;20363;-79
2022/07/08 02:42:09;;;;;;;;;;;;;;;23.15;32.11;102545.13;5052247;28;19920;-79
2022/07/08 02:44:36;;;;;;;;;;;;;;;23.13;32.00;102537.00;5031960;28;20019;-79
2022/07/08 02:47:04;;;;;;;;;;;;;;;23.13;32.09;102544.44;5047272;28;19921;-79
2022/07/08 02:49:30;;;;;;;;;;;;;;;23.12;32.02;102543.53;5052181;28;20244;-79
2022/07/08 02:51:57;;;;;;;;;;;;;;;23.11;32.12;102533.47;5054301;28;20023;-79
2022/07/08 02:54:23;;;;;;;;;;;;;;;23.10;32.28;102540.03;5053720;28;19933;-79
2022/07/08 02:56:50;;;;;;;;;;;;;;;23.10;32.18;102537.25;5054625;28;19975;-79
2022/07/08 02:59:16;;;;;;;;;;;;;;;23.09;32.27;102543.81;5054904;28;19924;-79
2022/07/08 03:01:43;;;;;;;;;;;;;;;23.10;32.58;102550.25;5049808;28;20031;-79
2022/07/08 03:04:09;;;;;;;;;;;;;;;23.08;32.15;102544.84;5056871;28;20012;-79
2022/07/08 03:06:36;;;;;;;;;;;;;;;23.08;32.25;102550.38;5056642;28;19978;-79
2022/07/08 03:09:02;;;;;;;;;;;;;;;23.09;32.61;102556.78;5052079;28;20363;-78
2022/07/08 03:11:29;;;;;;;;;;;;;;;23.08;32.16;102552.28;5051784;28;19979;-78
2022/07/08 03:13:55;;;;;;;;;;;;;;;23.08;32.21;102550.38;5046954;28;19921;-78
2022/07/08 03:16:28;;;;;;;;;;;;;;;23.07;32.25;102553.28;5054615;28;19924;-79
2022/07/08 03:18:55;;;;;;;;;;;;;;;23.08;32.28;102560.59;5047597;28;19928;-79
2022/07/08 03:21:21;;;;;;;;;;;;;;;23.07;32.28;102564.38;5044453;28;20129;-79
2022/07/08 03:23:48;;;;;;;;;;;;;;;23.06;32.69;102565.41;5051989;28;20333;-79
2022/07/08 03:26:14;;;;;;;;;;;;;;;23.06;32.29;102560.72;5047622;28;19964;-78
2022/07/08 03:28:41;;;;;;;;;;;;;;;23.06;32.36;102563.50;5055064;28;19951;-79
2022/07/08 03:31:07;;;;;;;;;;;;;;;23.05;32.43;102564.53;5049244;28;20325;-79
2022/07/08 03:33:34;;;;;;;;;;;;;;;23.05;32.86;102564.53;5042121;28;19925;-79
2022/07/08 03:36:00;;;;;;;;;;;;;;;23.04;32.84;102571.09;5045988;28;19921;-79
2022/07/08 03:38:27;;;;;;;;;;;;;;;23.04;32.90;102567.44;5047529;28;20015;-79
2022/07/08 03:43:39;;;;;;;;;;;;;;;23.02;32.50;102573.13;5045005;28;19927;-79
2022/07/08 03:46:05;;;;;;;;;;;;;;;23.02;32.58;102566.69;5041976;28;19924;-79
2022/07/08 03:48:32;;;;;;;;;;;;;;;23.01;32.46;102565.81;5052756;28;19928;-79
2022/07/08 03:50:59;;;;;;;;;;;;;;;23.00;32.50;102566.84;5054836;28;19929;-78
2022/07/08 03:53:25;;;;;;;;;;;;;;;22.99;32.93;102569.75;5050250;28;19956;-79
2022/07/08 03:55:53;;;;;;;;;;;;;;;22.97;32.92;102572.69;5046562;28;20280;-78
2022/07/08 03:58:19;;;;;;;;;;;;;;;22.96;32.96;102570.94;5051090;28;19948;-79
2022/07/08 04:00:46;;;;;;;;;;;;;;;22.95;32.65;102569.16;5049332;28;20330;-78
2022/07/08 04:03:12;;;;;;;;;;;;;;;22.95;32.95;102584.91;5046788;28;20007;-79
2022/07/08 04:05:39;;;;;;;;;;;;;;;22.94;32.57;102578.50;5054526;28;20450;-78
2022/07/08 04:08:06;;;;;;;;;;;;;;;22.93;32.64;102584.16;5063513;28;19927;-78
2022/07/08 04:10:32;;;;;;;;;;;;;;;22.92;32.70;102586.06;5059189;28;19991;-79
2022/07/08 04:12:59;;;;;;;;;;;;;;;22.91;32.65;102586.19;5050733;28;19974;-79
2022/07/08 04:15:26;;;;;;;;;;;;;;;22.91;32.77;102591.72;5046967;28;20003;-78
2022/07/08 04:17:52;;;;;;;;;;;;;;;22.89;32.73;102580.81;5048925;28;19956;-79
2022/07/08 04:20:20;;;;;;;;;;;;;;;22.89;33.16;102582.72;5044940;28;19925;-78
2022/07/08 04:22:46;;;;;;;;;;;;;;;22.89;32.68;102583.59;5046568;28;20003;-78
2022/07/08 04:25:13;;;;;;;;;;;;;;;22.88;32.75;102587.38;5039672;28;19968;-78
2022/07/08 04:27:39;;;;;;;;;;;;;;;22.87;32.73;102591.16;5041970;28;19956;-78
2022/07/08 04:30:06;;;;;;;;;;;;;;;22.87;32.85;102587.50;5045125;28;19993;-78
2022/07/08 04:32:32;;;;;;;;;;;;;;;22.87;33.31;102587.50;5041916;28;19924;-78
2022/07/08 04:34:59;;;;;;;;;;;;;;;22.85;33.36;102587.66;5048601;28;19925;-78
2022/07/08 04:37:26;;;;;;;;;;;;;;;22.85;33.34;102582.09;5043766;28;19927;-78
2022/07/08 04:39:53;;;;;;;;;;;;;;;22.84;33.37;102580.34;5047477;28;20006;-77
2022/07/08 04:42:20;;;;;;;;;;;;;;;22.84;33.35;102582.25;5046141;28;20055;-77
2022/07/08 04:44:47;;;;;;;;;;;;;;;22.84;33.03;102590.53;5048927;28;20066;-77
2022/07/08 04:47:13;;;;;;;;;;;;;;;22.83;33.34;102597.97;5037665;28;20375;-77
2022/07/08 04:49:40;;;;;;;;;;;;;;;22.84;32.95;102596.09;5049723;28;20240;-77
2022/07/08 04:52:06;;;;;;;;;;;;;;;22.84;33.06;102604.41;5047487;28;20003;-77
2022/07/08 04:54:34;;;;;;;;;;;;;;;22.84;33.60;102605.28;5042772;28;20004;-78
2022/07/08 04:57:00;;;;;;;;;;;;;;;22.83;33.14;102611.81;5048649;28;19924;-78
2022/07/08 04:59:27;;;;;;;;;;;;;;;22.83;33.48;102614.59;5042203;28;20020;-78
2022/07/08 05:01:53;;;;;;;;;;;;;;;22.84;33.52;102609.94;5045304;28;19927;-78
2022/07/08 05:04:20;;;;;;;;;;;;;;;22.84;33.58;102621.91;5044921;28;19928;-77
2022/07/08 05:06:47;;;;;;;;;;;;;;;22.84;33.10;102619.13;5045935;28;20320;-76
2022/07/08 05:09:13;;;;;;;;;;;;;;;22.85;33.10;102622.78;5044867;28;19960;-77
2022/07/08 05:11:40;;;;;;;;;;;;;;;22.85;33.11;102631.97;5041602;28;19921;-77
2022/07/08 05:14:14;;;;;;;;;;;;;;;22.86;33.52;102627.31;5045585;28;19925;-77
2022/07/08 05:16:41;;;;;;;;;;;;;;;22.86;33.13;102633.72;5037102;28;19928;-78
2022/07/08 05:19:08;;;;;;;;;;;;;;;22.86;33.69;102639.25;5042214;28;19970;-77
2022/07/08 05:21:38;;;;;;;;;;;;;;;22.87;33.37;102640.13;5046111;28;19929;-78
2022/07/08 05:24:05;;;;;;;;;;;;;;;22.88;33.10;102637.22;5052654;28;19924;-78
2022/07/08 05:26:32;;;;;;;;;;;;;;;22.88;33.60;102634.47;5046830;28;20159;-78
2022/07/08 05:28:59;;;;;;;;;;;;;;;22.89;33.23;102644.53;5046327;28;19975;-78
2022/07/08 05:31:25;;;;;;;;;;;;;;;22.90;33.63;102650.91;5036725;28;20008;-77
2022/07/08 05:33:52;;;;;;;;;;;;;;;22.91;33.46;102649.91;5051466;28;19920;-78
2022/07/08 05:36:19;;;;;;;;;;;;;;;22.91;33.17;102652.66;5053035;28;19924;-78
2022/07/08 05:38:45;;;;;;;;;;;;;;;22.91;33.21;102648.00;5047198;28;19925;-78
2022/07/08 05:41:14;;;;;;;;;;;;;;;22.93;33.55;102650.66;5052028;28;19920;-76
2022/07/08 05:43:41;;;;;;;;;;;;;;;22.93;33.29;102654.28;5050581;28;19956;-77
2022/07/08 05:46:07;;;;;;;;;;;;;;;22.95;33.20;102646.72;5039609;28;19927;-77
2022/07/08 05:48:34;;;;;;;;;;;;;;;22.97;33.37;102643.84;5047795;28;19974;-76
2022/07/08 05:51:00;;;;;;;;;;;;;;;23.00;33.85;102640.75;5043096;28;20255;-77
2022/07/08 05:53:27;;;;;;;;;;;;;;;23.04;33.95;102640.34;5051858;28;19952;-76
2022/07/08 05:55:54;;;;;;;;;;;;;;;23.08;34.12;102636.28;5051137;28;20427;-76
2022/07/08 05:58:20;;;;;;;;;;;;;;;23.16;34.11;102638.34;5058568;28;19974;-76
2022/07/08 06:00:47;;;;;;;;;;;;;;;23.23;34.20;102646.94;5051654;28;19944;-76
2022/07/08 06:03:13;;;;;;;;;;;;;;;23.31;34.14;102653.53;5049582;28;19920;-77
2022/07/08 06:05:40;;;;;;;;;;;;;;;23.40;33.79;102647.16;5049448;28;19960;-77
2022/07/08 06:08:06;;;;;;;;;;;;;;;23.51;34.19;102660.06;5047125;28;19983;-76
2022/07/08 06:10:34;;;;;;;;;;;;;;;23.62;34.32;102659.06;5061467;28;19920;-77
2022/07/08 06:13:00;;;;;;;;;;;;;;;23.74;34.25;102657.88;5069294;28;19921;-77
2022/07/08 06:15:27;;;;;;;;;;;;;;;23.84;33.82;102650.47;5048808;28;19928;-78
2022/07/08 06:17:54;;;;;;;;;;;;;;;23.97;34.08;102651.03;5048550;28;19921;-77
2022/07/08 06:20:21;;;;;;;;;;;;;;;24.10;33.65;102661.84;5054641;28;19944;-77
2022/07/08 06:22:48;;;;;;;;;;;;;;;24.21;34.09;102657.03;5048162;28;19939;-77
2022/07/08 06:25:14;;;;;;;;;;;;;;;24.35;33.92;102664.06;5052717;28;19920;-76
2022/07/08 06:27:41;;;;;;;;;;;;;;;24.48;33.92;102672.06;5045759;28;19921;-76
2022/07/08 06:30:12;;;;;;;;;;;;;;;24.61;33.88;102675.41;5057105;28;19921;-76
2022/07/08 06:32:41;;;;;;;;;;;;;;;24.76;33.29;102678.56;5052256;28;20174;-76
2022/07/08 06:35:08;;;;;;;;;;;;;;;24.88;33.19;102674.56;5055154;28;20012;-77
2022/07/08 06:37:34;;;;;;;;;;;;;;;25.00;33.35;102668.72;5043975;28;19982;-76
2022/07/08 06:40:02;;;;;;;;;;;;;;;25.10;32.82;102665.91;5055675;28;20023;-72
2022/07/08 06:42:28;;;;;;;;;;;;;;;25.19;32.45;102669.66;5046739;28;19921;-72
2022/07/08 06:44:55;;;;;;;;;;;;;;;25.27;32.35;102667.00;5052284;28;20024;-72
2022/07/08 06:47:22;;;;;;;;;;;;;;;25.35;32.67;102676.31;5046807;28;19924;-72
2022/07/08 06:49:50;;;;;;;;;;;;;;;25.44;32.92;102668.94;5073477;28;20026;-71
2022/07/08 06:52:17;;;;;;;;;;;;;;;25.53;32.71;102675.47;5047129;28;20007;-71
2022/07/08 06:54:44;;;;;;;;;;;;;;;25.60;32.36;102683.06;5050599;28;19969;-71
2022/07/08 06:57:11;;;;;;;;;;;;;;;25.69;32.49;102684.91;5045906;28;19925;-73
2022/07/08 06:59:38;;;;;;;;;;;;;;;25.76;32.30;102691.59;5049468;28;19929;-72
2022/07/08 07:02:25;;;;;;;;;;;;;;;25.85;32.33;102683.34;5051232;28;19920;-73
2022/07/08 07:04:51;;;;;;;;;;;;;;;25.92;32.07;102690.00;5053688;28;20120;-71
2022/07/08 07:07:18;;;;;;;;;;;;;;;26.01;32.15;102692.72;5047583;28;19928;-73
2022/07/08 07:09:47;;;;;;;;;;;;;;;26.09;31.92;102700.28;5054345;28;19928;-78
2022/07/08 07:12:14;;;;;;;;;;;;;;;26.17;31.78;102696.69;5062383;28;19969;-77
2022/07/08 07:14:41;;;;;;;;;;;;;;;26.21;31.90;102690.63;5048796;28;19975;-77
2022/07/08 07:17:11;;;;;;;;;;;;;;;26.26;31.44;102698.56;5048028;28;19975;-80
2022/07/08 07:19:38;;;;;;;;;;;;;;;26.29;31.12;102698.22;5045213;28;20086;-77
2022/07/08 07:22:04;;;;;;;;;;;;;;;26.30;31.40;102692.50;5063310;28;19974;-77
2022/07/08 07:24:31;;;;;;;;;;;;;;;26.29;30.99;102695.44;5073572;28;19987;-77
2022/07/08 07:26:57;;;;;;;;;;;;;;;26.25;31.13;102694.84;5047897;28;19953;-77
2022/07/08 07:29:24;;;;;;;;;;;;;;;26.25;31.47;102696.75;5063942;28;19953;-77
2022/07/08 07:31:50;;;;;;;;;;;;;;;26.21;31.07;102701.78;5060643;28;19929;-77
2022/07/08 07:34:17;;;;;;;;;;;;;;;26.19;31.10;102714.13;5041420;28;20364;-78
2022/07/08 07:36:43;;;;;;;;;;;;;;;26.16;30.88;102712.53;5047020;28;19951;-77
2022/07/08 07:39:10;;;;;;;;;;;;;;;26.12;30.67;102714.75;5055483;28;19952;-78
2022/07/08 07:41:37;;;;;;;;;;;;;;;26.08;30.76;102707.75;5054800;28;20321;-78
2022/07/08 07:44:07;;;;;;;;;;;;;;;26.04;30.52;102711.88;5049890;28;19921;-77
2022/07/08 07:46:33;;;;;;;;;;;;;;;26.01;30.80;102706.63;5058786;28;19963;-77
2022/07/08 07:49:00;;;;;;;;;;;;;;;25.99;30.93;102705.03;5052529;28;20125;-78
2022/07/08 07:51:27;;;;;;;;;;;;;;;25.96;30.87;102702.56;5048983;28;20303;-78
2022/07/08 07:53:54;;;;;;;;;;;;;;;25.92;30.77;102693.66;5051869;28;20015;-77
2022/07/08 07:56:21;;;;;;;;;;;;;;;25.91;30.71;102700.28;5054273;28;20403;-79
2022/07/08 07:58:47;;;;;;;;;;;;;;;25.91;30.67;102710.53;5046381;28;20333;-79
2022/07/08 08:01:23;;;;;;;;;;;;;;;25.91;31.31;102707.75;5042742;28;19928;-79
2022/07/08 08:03:50;;;;;;;;;;;;;;;25.93;30.85;102703.78;5064135;28;20018;-80
2022/07/08 08:06:18;;;;;;;;;;;;;;;25.97;31.24;102710.75;5051865;28;19921;-78
2022/07/08 08:08:45;;;;;;;;;;;;;;;26.02;31.14;102708.41;5044114;28;19940;-79
2022/07/08 08:11:11;;;;;;;;;;;;;;;26.08;31.11;102716.09;5052467;28;20023;-78
2022/07/08 08:13:38;;;;;;;;;;;;;;;26.14;31.27;102714.59;5047091;28;19921;-79
2022/07/08 08:16:04;;;;;;;;;;;;;;;26.20;30.90;102721.41;5044584;28;19966;-78
2022/07/08 08:18:37;;;;;;;;;;;;;;;26.27;31.09;102717.91;5045634;28;19926;-78
2022/07/08 08:21:04;;;;;;;;;;;;;;;26.36;31.40;102721.59;5051583;28;19928;-79
2022/07/08 08:23:31;;;;;;;;;;;;;;;26.45;31.53;102715.06;5047815;28;20035;-79
2022/07/08 08:25:57;;;;;;;;;;;;;;;26.53;31.48;102713.22;5067065;28;19966;-79
2022/07/08 08:28:24;;;;;;;;;;;;;;;26.63;31.41;102712.25;5042227;28;20340;-80
2022/07/08 08:30:51;;;;;;;;;;;;;;;26.72;31.15;102719.63;5043110;28;19933;-81
2022/07/08 08:33:17;;;;;;;;;;;;;;;26.82;31.06;102714.84;5041583;28;20276;-80
2022/07/08 08:35:44;;;;;;;;;;;;;;;26.92;31.30;102712.84;5039820;28;19925;-79
2022/07/08 08:38:11;;;;;;;;;;;;;;;27.02;31.40;102716.38;5047241;28;20387;-81
2022/07/08 08:40:38;;;;;;;;;;;;;;;27.13;31.38;102701.28;5054708;28;19928;-81
2022/07/08 08:43:13;;;;;;;;;;;;;;;27.23;31.09;102702.03;5043895;28;20370;-82
2022/07/08 08:45:43;;;;;;;;;;;;;;;27.34;31.05;102703.66;5049805;28;20275;-83
2022/07/08 08:48:10;;;;;;;;;;;;;;;27.39;31.02;102704.91;5044620;28;20015;-83
2022/07/08 08:50:53;;;;;;;;;;;;;;;27.45;30.74;102701.44;5049678;28;19955;-82
2022/07/08 08:53:27;;;;;;;;;;;;;;;27.50;30.16;102696.25;5045238;28;19924;-82
2022/07/08 08:55:54;;;;;;;;;;;;;;;27.54;30.46;102696.78;5050017;28;19983;-80
2022/07/08 08:58:23;;;;;;;;;;;;;;;27.60;30.36;102707.25;5037758;28;20364;-80
2022/07/08 09:00:49;;;;;;;;;;;;;;;27.64;30.34;102698.41;5047924;28;19990;-80
2022/07/08 09:03:16;;;;;;;;;;;;;;;27.70;30.20;102699.63;5036324;28;19921;-82
2022/07/08 09:05:43;;;;;;;;;;;;;;;27.76;30.52;102701.72;5052172;28;19920;-73
2022/07/08 09:08:09;;;;;;;;;;;;;;;27.82;30.51;102711.34;5043003;28;19952;-73
2022/07/08 09:10:36;;;;;;;;;;;;;;;27.88;30.16;102707.88;5052672;28;19950;-73
2022/07/08 09:13:04;;;;;;;;;;;;;;;27.94;30.30;102704.38;5041338;28;19936;-73
2022/07/08 09:15:38;;;;;;;;;;;;;;;28.00;30.12;102703.72;5045848;28;20384;-73
2022/07/08 09:18:06;;;;;;;;;;;;;;;28.07;30.07;102715.06;5048336;28;19970;-73
2022/07/08 09:20:49;;;;;;;;;;;;;;;28.12;30.18;102710.72;5049098;28;19920;-73
2022/07/08 09:23:21;;;;;;;;;;;;;;;28.17;30.04;102716.66;5048949;28;20023;-74
2022/07/08 09:25:49;;;;;;;;;;;;;;;28.24;30.20;102719.66;5045882;28;20317;-72
2022/07/08 09:28:16;;;;;;;;;;;;;;;28.28;30.05;102716.34;5045618;28;20011;-71
2022/07/08 09:30:43;;;;;;;;;;;;;;;28.33;29.76;102713.88;5039449;28;20494;-73
2022/07/08 09:33:10;;;;;;;;;;;;;;;28.37;29.71;102706.91;5038987;28;20011;-72
2022/07/08 09:35:37;;;;;;;;;;;;;;;28.43;29.70;102710.03;5054581;28;20493;-71
2022/07/08 09:38:07;;;;;;;;;;;;;;;28.47;29.57;102705.88;5051806;28;19950;-71
2022/07/08 09:40:34;;;;;;;;;;;;;;;28.51;29.48;102701.66;5053690;28;19929;-71
2022/07/08 09:43:11;;;;;;;;;;;;;;;28.55;29.45;102703.06;5045141;28;20020;-71
2022/07/08 09:45:38;;;;;;;;;;;;;;;28.59;29.54;102710.91;5053871;28;19925;-72
2022/07/08 09:48:08;;;;;;;;;;;;;;;28.64;29.50;102704.81;5026850;28;19962;-72
2022/07/08 09:50:36;;;;;;;;;;;;;;;28.68;29.59;102695.88;5059663;28;20456;-72
2022/07/08 09:53:24;;;;;;;;;;;;;;;28.74;29.62;102706.34;5058113;28;19994;-72
2022/07/08 09:55:52;;;;;;;;;;;;;;;28.81;29.47;102705.69;5046574;28;20023;-72
2022/07/08 09:58:20;;;;;;;;;;;;;;;28.86;29.58;102701.31;5044521;28;19921;-72
2022/07/08 10:00:48;;;;;;;;;;;;;;;28.91;29.06;102707.22;5050032;28;19921;-72
2022/07/08 10:03:15;;;;;;;;;;;;;;;28.94;28.88;102695.69;5051672;28;19921;-72
2022/07/08 10:05:42;;;;;;;;;;;;;;;28.98;29.07;102702.69;5046805;28;19967;-72
2022/07/08 10:08:16;;;;;;;;;;;;;;;28.99;28.61;102695.19;5049682;28;20019;-73
2022/07/08 10:11:05;;;;;;;;;;;;;;;29.00;28.92;102703.34;5042004;28;20010;-72
2022/07/08 10:13:31;;;;;;;;;;;;;;;29.02;28.69;102695.66;5048715;28;20009;-72
2022/07/08 10:16:00;;;;;;;;;;;;;;;29.02;28.52;102692.88;5052084;28;19920;-72
2022/07/08 10:18:34;;;;;;;;;;;;;;;29.02;28.69;102698.47;5051080;28;19940;-73
2022/07/08 10:21:02;;;;;;;;;;;;;;;29.03;28.43;102694.63;5046434;28;19967;-72
2022/07/08 10:23:32;;;;;;;;;;;;;;;29.03;28.48;102694.63;5044193;28;19949;-72
2022/07/08 10:25:59;;;;;;;;;;;;;;;29.04;28.44;102692.69;5047312;28;19924;-71
2022/07/08 10:28:39;;;;;;;;;;;;;;;29.03;28.69;102691.81;5050371;28;20019;-73
2022/07/08 10:31:22;;;;;;;;;;;;;;;29.01;28.25;102688.31;5049678;28;19921;-73
2022/07/08 10:33:50;;;;;;;;;;;;;;;29.00;28.33;102686.56;5052913;28;19982;-73
2022/07/08 10:36:21;;;;;;;;;;;;;;;28.99;28.29;102690.41;5049789;28;19921;-73
2022/07/08 10:38:48;;;;;;;;;;;;;;;29.00;28.44;102699.69;5050098;28;19927;-72
2022/07/08 10:41:19;;;;;;;;;;;;;;;29.00;28.24;102692.16;5044310;28;20414;-72
2022/07/08 10:43:49;;;;;;;;;;;;;;;29.02;28.36;102701.25;5050894;28;19967;-72
2022/07/08 10:46:16;;;;;;;;;;;;;;;29.04;28.37;102692.69;5046381;28;20357;-72
2022/07/08 10:48:50;;;;;;;;;;;;;;;29.05;28.36;102695.31;5044374;28;19927;-72
2022/07/08 10:51:24;;;;;;;;;;;;;;;29.07;28.62;102686.75;5065105;28;19921;-72
2022/07/08 10:54:08;;;;;;;;;;;;;;;29.09;28.59;102687.44;5044746;28;20350;-72
2022/07/08 10:56:48;;;;;;;;;;;;;;;29.10;28.31;102686.38;5046333;28;19983;-72
2022/07/08 10:59:18;;;;;;;;;;;;;;;29.11;28.38;102683.41;5045665;28;20355;-73
2022/07/08 11:02:03;;;;;;;;;;;;;;;29.12;28.05;102684.28;5048132;28;19927;-72
2022/07/08 11:04:33;;;;;;;;;;;;;;;29.13;28.20;102684.09;5054855;28;19921;-72
2022/07/08 11:07:20;;;;;;;;;;;;;;;29.15;28.32;102681.13;5048072;28;20259;-73
2022/07/08 11:09:48;;;;;;;;;;;;;;;29.17;28.06;102681.81;5059844;28;19921;-73
2022/07/08 11:12:16;;;;;;;;;;;;;;;29.18;28.34;102672.34;5046407;28;20243;-73
2022/07/08 11:14:44;;;;;;;;;;;;;;;29.23;28.30;102672.72;5045927;28;20010;-72
2022/07/08 11:17:20;;;;;;;;;;;;;;;29.28;28.60;102673.03;5045309;28;20019;-73
2022/07/08 11:19:48;;;;;;;;;;;;;;;29.33;28.37;102672.47;5047513;28;19948;-73
2022/07/08 11:22:15;;;;;;;;;;;;;;;29.39;28.30;102680.19;5052152;28;19964;-73
2022/07/08 11:24:52;;;;;;;;;;;;;;;29.46;28.47;102681.19;5048340;28;20016;-72
2022/07/08 11:27:24;;;;;;;;;;;;;;;29.51;28.61;102693.59;5046300;28;19920;-73
2022/07/08 11:29:52;;;;;;;;;;;;;;;29.57;28.06;102683.56;5051938;28;19924;-72
2022/07/08 11:32:19;;;;;;;;;;;;;;;29.63;28.15;102682.84;5049009;28;20425;-73
2022/07/08 11:34:46;;;;;;;;;;;;;;;29.69;28.08;102676.50;5057562;28;20386;-72
2022/07/08 11:37:13;;;;;;;;;;;;;;;29.75;28.21;102680.50;5043689;28;20023;-73
2022/07/08 11:39:41;;;;;;;;;;;;;;;29.79;27.85;102682.75;5053371;28;19942;-72
2022/07/08 11:42:09;;;;;;;;;;;;;;;29.85;27.95;102682.00;5053083;28;19924;-72
2022/07/08 11:44:35;;;;;;;;;;;;;;;29.91;28.04;102686.00;5048612;28;19936;-72
2022/07/08 11:47:03;;;;;;;;;;;;;;;29.93;27.99;102678.28;5053516;28;19928;-72
2022/07/08 11:49:30;;;;;;;;;;;;;;;29.98;27.77;102680.56;5053740;28;19931;-72
2022/07/08 11:51:57;;;;;;;;;;;;;;;29.99;27.71;102673.88;5044216;28;20003;-72
2022/07/08 11:54:26;;;;;;;;;;;;;;;29.99;27.46;102671.97;5047252;28;20080;-72
2022/07/08 11:57:00;;;;;;;;;;;;;;;30.00;27.54;102665.31;5051965;28;19924;-72
2022/07/08 11:59:28;;;;;;;;;;;;;;;30.01;27.68;102668.97;5044442;28;19921;-73
2022/07/08 12:01:55;;;;;;;;;;;;;;;30.01;27.36;102667.06;5052228;28;20421;-72
2022/07/08 12:04:27;;;;;;;;;;;;;;;30.00;27.25;102670.91;5038950;28;19920;-73
2022/07/08 12:06:55;;;;;;;;;;;;;;;30.01;27.68;102674.59;5036983;28;20007;-72
2022/07/08 12:09:22;;;;;;;;;;;;;;;30.01;27.57;102671.78;5061462;28;19982;-73
2022/07/08 12:11:49;;;;;;;;;;;;;;;30.00;27.23;102676.50;5059846;28;19924;-73
2022/07/08 12:14:16;;;;;;;;;;;;;;;29.99;27.41;102671.97;5060296;28;19944;-73
2022/07/08 12:16:44;;;;;;;;;;;;;;;29.98;27.20;102670.22;5048171;28;19960;-73
2022/07/08 12:19:26;;;;;;;;;;;;;;;29.98;27.19;102672.16;5064348;28;19928;-72
2022/07/08 12:21:53;;;;;;;;;;;;;;;29.96;27.30;102665.88;5043201;28;20387;-73
2022/07/08 12:24:24;;;;;;;;;;;;;;;29.95;27.47;102661.31;5051727;28;19927;-72
2022/07/08 12:27:08;;;;;;;;;;;;;;;29.93;27.51;102664.28;5047508;28;20381;-73
2022/07/08 12:29:38;;;;;;;;;;;;;;;29.93;27.27;102663.41;5050185;28;19920;-72
2022/07/08 12:32:05;;;;;;;;;;;;;;;29.92;27.31;102661.66;5050976;28;19979;-73
2022/07/08 12:34:32;;;;;;;;;;;;;;;29.92;27.48;102661.66;5045066;28;19998;-73
2022/07/08 12:37:15;;;;;;;;;;;;;;;29.92;27.22;102661.66;5048860;28;19933;-73
2022/07/08 12:39:44;;;;;;;;;;;;;;;29.90;27.29;102653.44;5045423;28;19929;-72
2022/07/08 12:42:23;;;;;;;;;;;;;;;29.88;27.28;102656.44;5050661;28;19924;-72